01:52
Airports
History
Links
Donate
Help keep this website running!
PayPal
Bitcoin
This page is community maintained. The information is intended for PC simulator navigation or reference.
Always use approved charts for navigation.
LEZL
Sevilla
Sevilla (LEZL)
Sevilla, Andalucía, Spain (41020)
(C)
Lat/Lng:37° 25' 4.58" N / 5° 53' 35.13" W
37.417939 / -5.893093
Elevation:111'ft / 34mMSL
ID / ICAO:LEZL
Runways:1
Longest:09-27
Asphalt 3,347m / 10,982ft
Controlled:Yes
METAR01:30 GMT 2017-11-24
Altimeter: 30.12
Visibility: 6.2 statute miles
Wind: 1 knots (from 010°)
Temp: 12°c / 54°f
Humidity: 66.7%

METAR: LEZL 240130Z AUTO 01001KT CAVOK 12/06 Q1020

(Powered by phpweather)
Airport Radio Frequencies
ATIS: 118.17
Ground: 121.7
Tower: 118.1
Approach: 128.5
Nearby VORs <50NM
Nearby NDBs
Runway 09 / 27
Dimensions:3347.4 x 45.1m 10982' x 148'ft
Surface:Asphalt
Runway 09 [A]Runway 27 [B]
Heading:089°TH 269°TH
Lat:
Lng:
37° 25' 4.35"N
5° 54' 43.5"W
37° 25' 4.81"N
5° 52' 26.77"W
User Notes and Comments
37° 25' 4.58" N / 5° 53' 35.13" W
Distance To
Airport ID:
Nearby Airports
(C) TABLADA 8.1 NM
LE85 SW 235°
(C) MORON AB 22.7 NM
LEMO ( WX ) SE 137°
(C) Jerez 47.4 NM
LEJR ( WX ) S 191°
(C) Rota Ns 59.0 NM
LERT ( WX ) SSW 205°
(C) Cordoba 64.2 NM
LEBA ( WX ) ENE 62°
4 Praia Verde Airstrip 88.0 NM
LPPV W 259°
(C) Malaga 92.4 NM
LEMG ( WX ) ESE 123°
VFR Chart
Flight Planning at SkyVector.com